Time;durP1;ratioP1;P1;durP2;ratioP2;P2;SDS_P1;SDS_P2;PMS_P1;PMS_P2;Temp;Humidity;BMP_temperature;BMP_pressure;BME280_temperature;BME280_humidity;BME280_pressure;Samples;Min_cycle;Max_cycle;Signal;HPM_P1;HPM_P2
2021/06/04 00:01:16;;;;;;;13.73;12.63;;;16.60;99.90;;;;;;5050776;28;20699;-83
2021/06/04 00:03:44;;;;;;;14.90;13.53;;;16.60;99.90;;;;;;5067369;28;20279;-84
2021/06/04 00:06:13;;;;;;;17.20;15.80;;;16.70;99.90;;;;;;5050886;28;20231;-85
2021/06/04 00:08:42;;;;;;;19.00;17.47;;;16.60;99.90;;;;;;5067131;28;20246;-84
2021/06/04 00:11:14;;;;;;;18.77;17.13;;;16.50;99.90;;;;;;5070828;28;20636;-84
2021/06/04 00:13:45;;;;;;;19.20;17.70;;;16.50;99.90;;;;;;5070054;28;20239;-83
2021/06/04 00:16:18;;;;;;;19.80;18.20;;;16.50;99.90;;;;;;5052140;28;20232;-84
2021/06/04 00:18:47;;;;;;;22.53;20.53;;;16.60;99.90;;;;;;5050054;28;20240;-84
2021/06/04 00:21:18;;;;;;;20.93;18.93;;;16.50;99.90;;;;;;5048965;28;20242;-84
2021/06/04 00:23:46;;;;;;;23.60;21.70;;;16.40;99.90;;;;;;5069976;28;20247;-84
2021/06/04 00:26:16;;;;;;;23.70;21.67;;;16.40;99.90;;;;;;5049189;28;20312;-84
2021/06/04 00:28:44;;;;;;;24.23;22.07;;;16.50;99.90;;;;;;5049934;28;20722;-83
2021/06/04 00:31:13;;;;;;;21.77;19.93;;;16.70;99.90;;;;;;5050276;28;20262;-84
2021/06/04 00:33:43;;;;;;;21.07;19.17;;;16.60;99.90;;;;;;5060691;28;20286;-83
2021/06/04 00:36:12;;;;;;;21.93;20.03;;;16.60;99.90;;;;;;5060948;28;20256;-84
2021/06/04 00:38:40;;;;;;;22.77;20.80;;;16.60;99.90;;;;;;5060294;28;20690;-83
2021/06/04 00:41:16;;;;;;;21.53;19.73;;;16.70;99.90;;;;;;5062675;28;20224;-83
2021/06/04 00:43:46;;;;;;;21.67;19.87;;;16.70;99.90;;;;;;5049592;28;20243;-84
2021/06/04 00:46:16;;;;;;;24.10;22.10;;;16.70;99.90;;;;;;5048247;28;20581;-84
2021/06/04 00:48:48;;;;;;;23.00;21.10;;;16.60;99.90;;;;;;5067435;28;20835;-85
2021/06/04 00:51:21;;;;;;;29.33;26.63;;;16.50;99.90;;;;;;5065138;28;20239;-84
2021/06/04 00:53:51;;;;;;;28.17;25.53;;;16.50;99.90;;;;;;5066022;28;21755;-84
2021/06/04 00:56:23;;;;;;;28.13;25.57;;;16.50;99.90;;;;;;5069976;28;20323;-83
2021/06/04 00:58:53;;;;;;;27.97;25.47;;;16.60;99.90;;;;;;5077910;28;20232;-84
2021/06/04 01:01:26;;;;;;;28.97;26.17;;;16.60;99.90;;;;;;5048024;28;20232;-84
2021/06/04 01:03:57;;;;;;;30.53;27.50;;;16.70;99.90;;;;;;5075721;28;20230;-83
2021/06/04 01:06:33;;;;;;;29.70;27.00;;;16.60;99.90;;;;;;5049780;28;20231;-83
2021/06/04 01:09:33;;;;;;;24.33;22.13;;;16.50;99.90;;;;;;5050410;28;20243;-84
2021/06/04 01:12:22;;;;;;;26.40;24.00;;;16.60;99.90;;;;;;5035039;28;20264;-85
2021/06/04 01:14:59;;;;;;;25.40;23.20;;;16.50;99.90;;;;;;5047911;28;20282;-84
2021/06/04 01:17:43;;;;;;;27.63;25.07;;;16.50;99.90;;;;;;5050222;28;20761;-84
2021/06/04 01:20:17;;;;;;;28.37;25.87;;;16.50;99.90;;;;;;5064672;28;20241;-85
2021/06/04 01:23:10;;;;;;;30.97;28.27;;;16.40;99.90;;;;;;5050123;28;20235;-84
2021/06/04 01:25:48;;;;;;;30.60;27.93;;;16.40;99.90;;;;;;5049348;28;20232;-85
2021/06/04 01:28:22;;;;;;;30.47;27.70;;;16.40;99.90;;;;;;5059543;28;20281;-84
2021/06/04 01:30:54;;;;;;;31.70;28.83;;;16.30;99.90;;;;;;5049085;28;20314;-85
2021/06/04 01:33:25;;;;;;;29.97;27.33;;;16.30;99.90;;;;;;5050137;28;20287;-85
2021/06/04 01:35:57;;;;;;;32.27;29.17;;;16.40;99.90;;;;;;5047660;28;20680;-84
2021/06/04 01:38:29;;;;;;;31.63;28.83;;;16.50;99.90;;;;;;5041811;28;20626;-84
2021/06/04 01:41:03;;;;;;;31.47;28.57;;;16.40;99.90;;;;;;5049289;28;20233;-83
2021/06/04 01:43:36;;;;;;;28.17;25.67;;;16.40;99.90;;;;;;5066335;28;20302;-84
2021/06/04 01:46:07;;;;;;;26.53;23.93;;;16.70;99.90;;;;;;5047743;28;20251;-85
2021/06/04 01:48:43;;;;;;;26.37;24.13;;;16.70;99.90;;;;;;5039573;28;20240;-85
2021/06/04 01:51:21;;;;;;;24.47;22.23;;;16.60;99.90;;;;;;5028399;28;20237;-84
2021/06/04 01:53:58;;;;;;;24.27;22.17;;;16.60;99.90;;;;;;5059893;28;20762;-84
2021/06/04 01:56:34;;;;;;;22.70;20.70;;;16.60;99.90;;;;;;5029098;28;20239;-85
2021/06/04 01:59:08;;;;;;;21.53;19.63;;;16.80;99.90;;;;;;5060360;28;20232;-85
2021/06/04 02:01:42;;;;;;;23.20;21.10;;;16.80;99.90;;;;;;5028501;28;20343;-85
2021/06/04 02:04:13;;;;;;;24.43;21.93;;;16.70;99.90;;;;;;5045462;28;20750;-85
2021/06/04 02:06:48;;;;;;;25.77;23.47;;;16.60;99.90;;;;;;5043453;28;20614;-85
2021/06/04 02:09:30;;;;;;;26.33;23.93;;;16.50;99.90;;;;;;5048877;28;20600;-84
2021/06/04 02:12:10;;;;;;;25.90;23.70;;;16.40;99.90;;;;;;5066482;28;20240;-84
2021/06/04 02:14:47;;;;;;;25.87;23.57;;;16.30;99.90;;;;;;5063844;28;20244;-85
2021/06/04 02:17:35;;;;;;;26.93;24.50;;;16.30;99.90;;;;;;5049671;28;20236;-85
2021/06/04 02:20:18;;;;;;;28.50;26.00;;;16.20;99.90;;;;;;5064301;28;20556;-84
2021/06/04 02:23:03;;;;;;;25.77;23.47;;;16.10;99.90;;;;;;5049723;28;20228;-85
2021/06/04 02:25:45;;;;;;;25.53;23.23;;;16.40;99.90;;;;;;5041197;28;20766;-85
2021/06/04 02:28:24;;;;;;;25.50;23.20;;;16.50;99.90;;;;;;5059611;28;20235;-84
2021/06/04 02:31:01;;;;;;;27.00;24.40;;;16.50;99.90;;;;;;5048899;28;20626;-84
2021/06/04 02:33:34;;;;;;;23.40;21.30;;;16.40;99.90;;;;;;5048794;28;20237;-82
2021/06/04 02:36:09;;;;;;;24.67;22.47;;;16.60;99.90;;;;;;5048688;28;20243;-84
2021/06/04 02:38:41;;;;;;;25.90;23.60;;;16.70;99.90;;;;;;5050955;28;20671;-83
2021/06/04 02:41:13;;;;;;;24.70;22.47;;;16.60;99.90;;;;;;5063799;28;20881;-85
2021/06/04 02:43:47;;;;;;;24.47;22.23;;;16.40;99.90;;;;;;5050821;28;20742;-85
2021/06/04 02:46:19;;;;;;;24.43;22.23;;;16.30;99.90;;;;;;5063642;28;20239;-84
2021/06/04 02:48:50;;;;;;;26.13;23.83;;;16.20;99.90;;;;;;5047993;28;20259;-84
2021/06/04 02:51:28;;;;;;;25.57;23.27;;;16.10;99.90;;;;;;5063754;28;20235;-84
2021/06/04 02:53:59;;;;;;;27.10;24.67;;;16.10;99.90;;;;;;5082547;28;20247;-84
2021/06/04 02:56:30;;;;;;;22.33;20.23;;;16.20;99.90;;;;;;5083447;28;20282;-83
2021/06/04 02:59:03;;;;;;;23.10;21.10;;;16.30;99.90;;;;;;5053393;28;20232;-83
2021/06/04 03:01:36;;;;;;;22.27;20.27;;;16.40;99.90;;;;;;5046830;28;20241;-84
2021/06/04 03:04:07;;;;;;;22.90;20.90;;;16.50;99.90;;;;;;5074744;28;20311;-84
2021/06/04 03:06:41;;;;;;;22.73;20.80;;;16.40;99.90;;;;;;5047014;28;20263;-83
2021/06/04 03:09:16;;;;;;;22.90;20.80;;;16.50;99.90;;;;;;5064968;28;20231;-83
2021/06/04 03:11:44;;;;;;;21.17;19.37;;;16.50;99.90;;;;;;5067153;28;20239;-83
2021/06/04 03:14:17;;;;;;;22.67;20.57;;;16.50;99.90;;;;;;5072058;28;20649;-83
2021/06/04 03:16:46;;;;;;;20.00;18.20;;;16.50;99.90;;;;;;5087544;28;20239;-84
2021/06/04 03:19:16;;;;;;;18.50;17.00;;;16.50;99.90;;;;;;5051117;28;20343;-83
2021/06/04 03:21:50;;;;;;;19.27;17.57;;;16.50;99.90;;;;;;5050323;28;20263;-83
2021/06/04 03:24:22;;;;;;;18.13;16.63;;;16.40;99.90;;;;;;5047738;28;20229;-85
2021/06/04 03:26:50;;;;;;;19.83;18.03;;;16.40;99.90;;;;;;5048334;28;20233;-85
2021/06/04 03:29:20;;;;;;;20.60;18.80;;;16.40;99.90;;;;;;5066149;28;20232;-84
2021/06/04 03:31:57;;;;;;;18.57;17.03;;;16.30;99.90;;;;;;5048454;28;20239;-84
2021/06/04 03:34:27;;;;;;;18.57;16.97;;;16.30;99.90;;;;;;5066731;28;20236;-85
2021/06/04 03:36:58;;;;;;;19.10;17.50;;;16.10;99.90;;;;;;5049936;28;20238;-84
2021/06/04 03:39:30;;;;;;;14.93;13.57;;;16.10;99.90;;;;;;5031374;28;20233;-83
2021/06/04 03:42:00;;;;;;;15.40;14.10;;;16.20;99.90;;;;;;5024683;28;20240;-84
2021/06/04 03:44:33;;;;;;;14.60;13.47;;;16.20;99.90;;;;;;5055614;28;20315;-84
2021/06/04 03:47:01;;;;;;;14.43;13.23;;;16.30;99.90;;;;;;5048436;28;20232;-83
2021/06/04 03:49:35;;;;;;;17.60;16.10;;;16.20;99.90;;;;;;5048447;28;20232;-84
2021/06/04 03:52:05;;;;;;;17.37;15.87;;;16.20;99.90;;;;;;5046649;28;20232;-85
2021/06/04 03:54:35;;;;;;;14.47;13.37;;;15.90;99.90;;;;;;5059504;28;20259;-84
2021/06/04 03:57:06;;;;;;;14.90;13.70;;;15.90;99.90;;;;;;5049428;28;20235;-83
2021/06/04 03:59:35;;;;;;;13.27;12.20;;;16.00;99.90;;;;;;5050755;28;20297;-84
2021/06/04 04:02:07;;;;;;;14.60;12.93;;;16.10;99.90;;;;;;5052590;28;20654;-84
2021/06/04 04:04:36;;;;;;;11.60;10.60;;;16.30;99.90;;;;;;5050392;28;20310;-83
2021/06/04 04:07:04;;;;;;;11.53;10.73;;;16.30;99.90;;;;;;5052798;28;20281;-85
2021/06/04 04:09:32;;;;;;;12.60;11.50;;;16.30;99.90;;;;;;5065370;28;20589;-84
2021/06/04 04:12:00;;;;;;;13.00;12.10;;;16.50;99.90;;;;;;5037840;28;20251;-84
2021/06/04 04:14:28;;;;;;;13.20;12.20;;;16.50;99.90;;;;;;5048877;28;20227;-84
2021/06/04 04:16:57;;;;;;;12.00;11.20;;;16.70;99.90;;;;;;5052811;28;20343;-84
2021/06/04 04:19:26;;;;;;;13.60;12.60;;;16.70;99.90;;;;;;5042114;28;20237;-83
2021/06/04 04:21:56;;;;;;;15.90;14.70;;;16.70;99.90;;;;;;5050400;28;20251;-84
2021/06/04 04:24:26;;;;;;;17.17;15.63;;;16.90;99.90;;;;;;5050569;28;20596;-83
2021/06/04 04:26:54;;;;;;;16.13;14.83;;;17.00;99.90;;;;;;5052134;28;20234;-85
2021/06/04 04:29:22;;;;;;;19.73;18.07;;;17.10;99.90;;;;;;5049111;28;20239;-83
2021/06/04 04:31:53;;;;;;;19.00;17.50;;;17.30;99.90;;;;;;5051240;28;20236;-83
2021/06/04 04:34:24;;;;;;;18.90;17.50;;;17.40;99.90;;;;;;5049852;28;20239;-84
2021/06/04 04:36:55;;;;;;;17.17;15.77;;;17.40;99.90;;;;;;5051366;28;20244;-83
2021/06/04 04:39:28;;;;;;;17.17;15.83;;;17.20;99.90;;;;;;5049881;28;20228;-83
2021/06/04 04:41:57;;;;;;;18.77;17.03;;;17.10;99.90;;;;;;5041022;28;20239;-84
2021/06/04 04:44:29;;;;;;;22.37;20.57;;;17.00;99.90;;;;;;5069768;28;20289;-84
2021/06/04 04:46:57;;;;;;;22.37;20.53;;;16.90;99.90;;;;;;5069959;28;20290;-86
2021/06/04 04:49:26;;;;;;;20.67;19.07;;;16.90;99.90;;;;;;5076204;28;20315;-85
2021/06/04 04:51:56;;;;;;;26.83;24.63;;;16.90;99.90;;;;;;5043554;28;20704;-85
2021/06/04 04:54:26;;;;;;;28.83;26.53;;;16.90;99.90;;;;;;5049671;28;20310;-84
2021/06/04 04:56:54;;;;;;;24.27;22.17;;;16.90;99.90;;;;;;5064827;28;20232;-81
2021/06/04 04:59:22;;;;;;;26.93;24.63;;;16.90;99.90;;;;;;5049315;28;20640;-81
2021/06/04 05:01:51;;;;;;;26.70;24.47;;;17.00;99.90;;;;;;5047026;28;20263;-80
2021/06/04 05:04:19;;;;;;;24.90;22.80;;;17.20;99.90;;;;;;5050062;28;20627;-86
2021/06/04 05:06:49;;;;;;;23.00;21.07;;;17.40;99.90;;;;;;5043695;28;20234;-85
2021/06/04 05:09:17;;;;;;;24.87;22.77;;;17.50;99.90;;;;;;5048074;28;20236;-85
2021/06/04 05:11:45;;;;;;;24.37;22.30;;;17.60;99.90;;;;;;5049264;28;20328;-84
2021/06/04 05:14:15;;;;;;;21.40;19.53;;;17.70;99.90;;;;;;5049441;28;20251;-85
2021/06/04 05:16:43;;;;;;;26.67;24.37;;;17.70;99.90;;;;;;5049244;28;20243;-84
2021/06/04 05:19:11;;;;;;;24.30;22.17;;;17.90;99.90;;;;;;5051336;28;20240;-85
2021/06/04 05:21:38;;;;;;;26.17;23.97;;;17.90;99.90;;;;;;5049027;28;20241;-84
2021/06/04 05:24:12;;;;;;;25.10;23.10;;;18.00;99.90;;;;;;5049617;28;20319;-83
2021/06/04 05:26:40;;;;;;;23.80;21.70;;;18.20;99.90;;;;;;5049566;28;20237;-85
2021/06/04 05:29:08;;;;;;;24.67;22.70;;;18.40;99.90;;;;;;5058559;28;20670;-84
2021/06/04 05:31:38;;;;;;;20.27;18.60;;;18.60;99.90;;;;;;5049154;28;20311;-85
2021/06/04 05:34:07;;;;;;;19.13;17.47;;;18.80;99.90;;;;;;5069210;28;20253;-87
2021/06/04 05:36:39;;;;;;;18.30;16.70;;;19.00;99.90;;;;;;5084402;28;20617;-87
2021/06/04 05:39:11;;;;;;;19.93;18.30;;;19.20;99.90;;;;;;5058451;28;20257;-86
2021/06/04 05:41:50;;;;;;;18.10;16.60;;;19.40;99.90;;;;;;5032945;28;20243;-89
2021/06/04 05:44:21;;;;;;;18.57;16.87;;;19.50;99.90;;;;;;5048380;28;20238;-88
2021/06/04 05:46:57;;;;;;;18.07;16.47;;;19.80;99.90;;;;;;5049084;28;20330;-88
2021/06/04 05:49:25;;;;;;;20.53;18.83;;;20.10;99.90;;;;;;5048772;28;20304;-86
2021/06/04 05:51:54;;;;;;;16.13;14.73;;;20.40;99.90;;;;;;5050367;28;20709;-87
2021/06/04 05:54:22;;;;;;;19.97;18.27;;;20.60;99.90;;;;;;5049486;28;20729;-88
2021/06/04 05:56:51;;;;;;;14.77;13.40;;;20.80;99.90;;;;;;5048554;28;20227;-87
2021/06/04 05:59:20;;;;;;;14.57;13.37;;;21.00;99.90;;;;;;5044274;28;20350;-88
2021/06/04 06:01:48;;;;;;;16.60;15.20;;;21.30;99.90;;;;;;5043278;28;20236;-86
2021/06/04 06:04:17;;;;;;;14.53;13.23;;;21.50;99.90;;;;;;5055518;28;20238;-86
2021/06/04 06:06:45;;;;;;;14.50;13.20;;;21.80;99.90;;;;;;5065915;28;20241;-87
2021/06/04 06:09:14;;;;;;;14.00;12.70;;;21.90;99.90;;;;;;5049709;28;20251;-88
2021/06/04 06:12:10;;;;;;;12.90;11.80;;;22.10;99.90;;;;;;5048553;28;20238;-88
2021/06/04 06:14:39;;;;;;;13.50;12.47;;;22.30;99.90;;;;;;5044182;28;20307;-89
2021/06/04 06:17:08;;;;;;;17.10;15.50;;;22.50;99.90;;;;;;5031145;28;20232;-90
2021/06/04 06:19:40;;;;;;;14.03;12.80;;;22.60;99.90;;;;;;5042726;28;20780;-92
2021/06/04 06:22:09;;;;;;;13.93;12.53;;;22.60;99.90;;;;;;5038084;28;20261;-89
2021/06/04 06:24:37;;;;;;;14.70;13.30;;;22.70;99.90;;;;;;5063786;28;20327;-87
2021/06/04 06:27:06;;;;;;;13.53;12.30;;;22.70;99.90;;;;;;5061507;28;20318;-87
2021/06/04 06:29:37;;;;;;;13.70;12.60;;;23.00;99.90;;;;;;5060954;28;20315;-87
2021/06/04 06:32:07;;;;;;;12.87;11.67;;;23.30;99.90;;;;;;5043970;28;20636;-84
2021/06/04 06:34:36;;;;;;;13.50;12.20;;;23.50;99.90;;;;;;5051961;28;20293;-83
2021/06/04 06:37:13;;;;;;;14.00;12.67;;;23.70;99.90;;;;;;5051815;28;20314;-87
2021/06/04 06:39:40;;;;;;;12.07;11.07;;;23.80;99.90;;;;;;5057226;28;20235;-90
2021/06/04 06:42:13;;;;;;;13.43;12.33;;;23.90;99.90;;;;;;5053830;28;20273;-88
2021/06/04 06:44:43;;;;;;;11.40;10.40;;;23.90;99.90;;;;;;5066844;28;20573;-88
2021/06/04 06:47:13;;;;;;;12.50;11.40;;;24.00;99.90;;;;;;5052139;28;20247;-90
2021/06/04 06:49:41;;;;;;;9.50;8.70;;;24.20;99.90;;;;;;5051469;28;20314;-89
2021/06/04 06:52:09;;;;;;;11.20;10.30;;;24.50;99.90;;;;;;5051647;28;20305;-87
2021/06/04 06:54:41;;;;;;;11.03;10.13;;;24.60;99.90;;;;;;5050703;28;20274;-88
2021/06/04 06:57:09;;;;;;;9.30;8.50;;;24.70;99.90;;;;;;5053065;28;20813;-89
2021/06/04 06:59:37;;;;;;;10.70;9.40;;;25.00;99.90;;;;;;5050986;28;20674;-87
2021/06/04 07:02:10;;;;;;;10.30;9.40;;;24.90;99.90;;;;;;5052579;28;20295;-87
2021/06/04 07:04:41;;;;;;;9.13;8.33;;;25.20;99.90;;;;;;5050320;28;20240;-82
2021/06/04 07:07:39;;;;;;;9.90;8.97;;;25.50;99.90;;;;;;5051687;28;20238;-85
2021/06/04 07:10:13;;;;;;;10.10;9.20;;;25.90;99.90;;;;;;5040562;28;20772;-86
2021/06/04 07:12:42;;;;;;;10.60;9.50;;;25.90;99.90;;;;;;5053256;28;20307;-86
2021/06/04 07:15:15;;;;;;;12.37;11.27;;;25.70;99.90;;;;;;5051894;28;20241;-87
2021/06/04 07:17:47;;;;;;;11.50;10.40;;;25.50;99.90;;;;;;5060460;28;20243;-87
2021/06/04 07:20:17;;;;;;;10.30;9.50;;;25.20;99.90;;;;;;5070524;28;20232;-87
2021/06/04 07:22:46;;;;;;;10.23;9.33;;;25.40;99.90;;;;;;5065232;28;20312;-87
2021/06/04 07:25:19;;;;;;;12.00;9.87;;;25.60;99.90;;;;;;5067824;28;21024;-86
2021/06/04 07:27:51;;;;;;;10.17;9.07;;;25.60;99.90;;;;;;5055749;28;20618;-85
2021/06/04 07:30:23;;;;;;;11.17;10.07;;;25.70;99.90;;;;;;5053750;28;20708;-87
2021/06/04 07:32:53;;;;;;;9.67;8.73;;;25.80;99.90;;;;;;5074773;28;20238;-89
2021/06/04 07:35:26;;;;;;;9.23;8.43;;;26.20;99.90;;;;;;5064739;28;20240;-87
2021/06/04 07:37:55;;;;;;;10.83;9.83;;;26.40;99.90;;;;;;5058911;28;20234;-88
2021/06/04 07:40:29;;;;;;;7.70;6.90;;;26.40;99.90;;;;;;5078954;28;20269;-89
2021/06/04 07:43:00;;;;;;;7.63;7.03;;;27.10;99.90;;;;;;5057069;28;20301;-86
2021/06/04 07:45:31;;;;;;;8.93;8.13;;;27.30;99.90;;;;;;5065797;28;20237;-87
2021/06/04 07:48:01;;;;;;;8.87;7.60;;;27.30;99.90;;;;;;5066843;28;20264;-89
2021/06/04 07:50:30;;;;;;;8.77;7.90;;;27.30;99.90;;;;;;5049227;28;20239;-86
2021/06/04 07:53:00;;;;;;;9.33;8.43;;;27.50;99.90;;;;;;5058138;28;20559;-87
2021/06/04 07:55:29;;;;;;;8.70;8.00;;;27.70;99.90;;;;;;5086822;28;20235;-88
2021/06/04 07:57:57;;;;;;;9.77;8.87;;;28.50;99.90;;;;;;5070374;28;20235;-86
2021/06/04 08:00:30;;;;;;;9.53;8.37;;;28.50;99.90;;;;;;5051146;28;20254;-86
2021/06/04 08:03:05;;;;;;;7.33;6.37;;;28.40;99.90;;;;;;5054196;28;20296;-86
2021/06/04 08:05:46;;;;;;;7.03;6.40;;;28.20;99.90;;;;;;5023385;28;20262;-86
2021/06/04 08:08:16;;;;;;;7.20;6.60;;;28.30;99.90;;;;;;5056463;28;20226;-85
2021/06/04 08:10:46;;;;;;;9.57;7.23;;;28.50;99.90;;;;;;5049713;28;20743;-84
2021/06/04 08:13:15;;;;;;;6.83;6.27;;;28.50;99.90;;;;;;5061599;28;20231;-85
2021/06/04 08:15:50;;;;;;;7.77;7.00;;;28.70;99.90;;;;;;5064510;28;20238;-85
2021/06/04 08:18:22;;;;;;;7.03;5.80;;;29.00;99.90;;;;;;5049080;28;20230;-84
2021/06/04 08:20:50;;;;;;;5.77;5.30;;;29.30;99.90;;;;;;5065020;28;20718;-85
2021/06/04 08:23:23;;;;;;;6.00;5.50;;;29.70;99.90;;;;;;5062672;28;20682;-86
2021/06/04 08:26:12;;;;;;;6.20;4.87;;;29.80;99.90;;;;;;5070447;28;20243;-86
2021/06/04 08:28:42;;;;;;;5.60;5.10;;;29.50;99.90;;;;;;5067663;28;20254;-85
2021/06/04 08:31:19;;;;;;;5.93;4.80;;;29.50;99.90;;;;;;5051050;28;20235;-84
2021/06/04 08:33:49;;;;;;;5.57;4.70;;;29.70;99.90;;;;;;5059155;28;20235;-84
2021/06/04 08:36:20;;;;;;;5.90;4.30;;;29.80;99.90;;;;;;5051124;28;20710;-85
2021/06/04 08:38:48;;;;;;;5.67;4.43;;;29.70;99.90;;;;;;5053158;28;20232;-84
2021/06/04 08:41:27;;;;;;;4.70;4.30;;;29.60;99.90;;;;;;5049632;28;20286;-84
2021/06/04 08:44:07;;;;;;;6.03;5.40;;;29.80;99.90;;;;;;5049293;28;20389;-85
2021/06/04 08:46:40;;;;;;;4.80;4.27;;;29.90;99.90;;;;;;5048299;28;20239;-85
2021/06/04 08:49:18;;;;;;;5.67;4.77;;;30.20;99.90;;;;;;5068499;28;20300;-85
2021/06/04 08:51:58;;;;;;;4.60;4.20;;;30.50;99.90;;;;;;5068946;28;20239;-85
2021/06/04 08:54:35;;;;;;;4.50;3.97;;;30.40;99.90;;;;;;5047512;28;20768;-85
2021/06/04 08:57:11;;;;;;;4.07;3.70;;;30.70;99.90;;;;;;5051232;28;20247;-85
2021/06/04 08:59:41;;;;;;;5.10;4.63;;;31.00;99.90;;;;;;5083849;28;20243;-84
2021/06/04 09:02:10;;;;;;;4.40;4.00;;;31.10;99.90;;;;;;5064587;28;20715;-85
2021/06/04 09:04:48;;;;;;;3.90;3.53;;;31.00;99.90;;;;;;5049170;28;20236;-84
2021/06/04 09:07:24;;;;;;;4.93;4.53;;;30.90;99.90;;;;;;5048769;28;20319;-84
2021/06/04 09:10:04;;;;;;;4.73;4.27;;;30.80;99.90;;;;;;5047449;28;20235;-83
2021/06/04 09:12:42;;;;;;;4.60;4.20;;;30.70;99.90;;;;;;5048982;28;20256;-84
2021/06/04 09:15:12;;;;;;;4.73;4.07;;;30.90;99.90;;;;;;5048983;28;20235;-84
2021/06/04 09:17:51;;;;;;;3.90;3.60;;;31.30;99.90;;;;;;5056271;28;20239;-84
2021/06/04 09:20:32;;;;;;;3.97;3.57;;;31.80;99.90;;;;;;5068724;28;20248;-84
2021/06/04 09:23:03;;;;;;;4.37;3.60;;;31.80;99.90;;;;;;5082909;28;20308;-84
2021/06/04 09:25:33;;;;;;;4.60;3.60;;;32.40;99.90;;;;;;5065965;28;20762;-83
2021/06/04 09:28:26;;;;;;;5.87;5.37;;;32.00;99.90;;;;;;5068531;28;20312;-84
2021/06/04 09:30:57;;;;;;;5.50;4.00;;;31.60;99.90;;;;;;5067071;28;20241;-85
2021/06/04 09:33:30;;;;;;;4.87;4.43;;;31.90;99.90;;;;;;5068612;28;20235;-85
2021/06/04 09:36:09;;;;;;;5.73;5.33;;;32.10;99.90;;;;;;5073350;28;20323;-84
2021/06/04 09:38:42;;;;;;;4.50;4.17;;;31.30;99.90;;;;;;5068123;28;20237;-85
2021/06/04 09:41:35;;;;;;;4.13;3.83;;;31.30;99.90;;;;;;5066809;28;20235;-84
2021/06/04 09:44:29;;;;;;;5.80;5.30;;;31.60;99.90;;;;;;5048892;28;20279;-84
2021/06/04 09:47:02;;;;;;;4.30;3.90;;;31.60;99.90;;;;;;5047630;28;20711;-84
2021/06/04 09:49:48;;;;;;;4.50;3.73;;;32.00;99.90;;;;;;5041531;28;20757;-82
2021/06/04 09:52:24;;;;;;;3.70;3.40;;;32.10;99.90;;;;;;5055175;28;20576;-81
2021/06/04 09:55:12;;;;;;;4.17;3.37;;;32.10;99.90;;;;;;5045980;28;20275;-79
2021/06/04 09:58:09;;;;;;;3.77;3.40;;;32.60;99.90;;;;;;5045029;28;20249;-80
2021/06/04 10:00:40;;;;;;;3.37;3.10;;;32.70;99.90;;;;;;5060728;28;20242;-80
2021/06/04 10:03:20;;;;;;;4.57;3.53;;;32.30;99.90;;;;;;5045594;28;20705;-80
2021/06/04 10:05:51;;;;;;;5.07;3.17;;;32.20;99.90;;;;;;5046108;28;20265;-81
2021/06/04 10:08:26;;;;;;;3.50;3.30;;;32.40;99.90;;;;;;5075723;28;20299;-81
2021/06/04 10:11:07;;;;;;;5.60;3.67;;;32.70;99.90;;;;;;5061665;28;20237;-80
2021/06/04 10:13:43;;;;;;;3.77;3.33;;;33.20;99.90;;;;;;5064586;28;20237;-81
2021/06/04 10:16:58;;;;;;;3.90;3.30;;;33.90;99.90;;;;;;5064661;28;20240;-81
2021/06/04 10:19:33;;;;;;;3.33;3.00;;;33.80;99.90;;;;;;5069578;28;20708;-80
2021/06/04 10:22:32;;;;;;;3.50;3.20;;;33.90;99.90;;;;;;5057689;28;20321;-81
2021/06/04 10:25:23;;;;;;;4.33;3.43;;;33.50;99.90;;;;;;5004432;28;20227;-82
2021/06/04 10:27:53;;;;;;;3.87;3.37;;;33.20;98.60;;;;;;5049372;28;20251;-82
2021/06/04 10:30:25;;;;;;;3.80;3.47;;;32.90;99.90;;;;;;5050460;28;20729;-80
2021/06/04 10:33:03;;;;;;;4.00;3.40;;;32.70;99.90;;;;;;5059794;28;20239;-81
2021/06/04 10:35:35;;;;;;;3.93;3.63;;;32.50;99.90;;;;;;5070003;28;20262;-79
2021/06/04 10:38:08;;;;;;;3.70;3.40;;;32.50;99.90;;;;;;5059396;28;20587;-80
2021/06/04 10:40:45;;;;;;;3.77;3.10;;;32.00;99.90;;;;;;5049982;28;20246;-81
2021/06/04 10:43:32;;;;;;;4.10;3.40;;;31.50;99.90;;;;;;5062556;28;20759;-81
2021/06/04 10:46:09;;;;;;;4.03;3.37;;;32.00;99.90;;;;;;5050055;28;20243;-81
2021/06/04 10:48:50;;;;;;;3.23;2.90;;;32.80;99.90;;;;;;5064721;28;20636;-80
2021/06/04 10:51:27;;;;;;;3.63;3.33;;;33.40;99.90;;;;;;5084809;28;20314;-80
2021/06/04 10:54:06;;;;;;;4.00;3.40;;;33.30;99.90;;;;;;5070021;28;20322;-81
2021/06/04 10:56:39;;;;;;;5.07;3.77;;;33.50;99.90;;;;;;5070214;28;20246;-81
2021/06/04 10:59:16;;;;;;;4.93;4.50;;;33.50;99.90;;;;;;5069611;28;20251;-80
2021/06/04 11:01:51;;;;;;;4.80;4.40;;;33.30;99.20;;;;;;5069608;28;20304;-81
2021/06/04 11:04:25;;;;;;;4.23;3.83;;;33.40;99.80;;;;;;5068613;28;20243;-80
2021/06/04 11:07:05;;;;;;;3.70;3.40;;;33.70;99.90;;;;;;5069780;28;20293;-81
2021/06/04 11:09:45;;;;;;;4.00;3.57;;;34.20;98.70;;;;;;5069725;28;20261;-80
2021/06/04 11:12:30;;;;;;;4.73;3.93;;;34.10;98.40;;;;;;5068935;28;20280;-81
2021/06/04 11:15:04;;;;;;;4.93;4.20;;;34.00;99.40;;;;;;5070042;28;20245;-80
2021/06/04 11:17:41;;;;;;;5.67;4.40;;;33.80;97.50;;;;;;5063045;28;20234;-80
2021/06/04 11:20:15;;;;;;;6.57;5.87;;;33.40;97.60;;;;;;5048391;28;20900;-82
2021/06/04 11:22:48;;;;;;;3.93;3.60;;;33.10;97.50;;;;;;5057236;28;20245;-81
2021/06/04 11:25:42;;;;;;;5.53;3.83;;;33.60;99.70;;;;;;5069314;28;20303;-79
2021/06/04 11:28:26;;;;;;;5.70;5.17;;;33.80;97.50;;;;;;5056863;28;20714;-80
2021/06/04 11:30:57;;;;;;;4.53;3.83;;;33.50;99.50;;;;;;5050285;28;20273;-79
2021/06/04 11:33:31;;;;;;;5.97;4.40;;;34.00;99.80;;;;;;5057779;28;20691;-80
2021/06/04 11:36:09;;;;;;;5.70;5.20;;;34.30;97.90;;;;;;5068028;28;20319;-81
2021/06/04 11:38:43;;;;;;;5.27;4.77;;;34.10;98.50;;;;;;5067125;28;20253;-79
2021/06/04 11:41:16;;;;;;;7.17;6.43;;;34.40;98.80;;;;;;5069184;28;20231;-79
2021/06/04 11:43:50;;;;;;;4.80;4.40;;;34.40;96.80;;;;;;5068665;28;20250;-79
2021/06/04 11:46:25;;;;;;;5.87;5.10;;;34.80;98.30;;;;;;5069305;28;20238;-80
2021/06/04 11:49:03;;;;;;;5.03;4.50;;;34.40;98.10;;;;;;5068574;28;20242;-79
2021/06/04 11:51:38;;;;;;;5.07;4.57;;;33.50;98.50;;;;;;5084141;28;20245;-82
2021/06/04 11:54:24;;;;;;;5.57;5.07;;;33.20;99.40;;;;;;5049259;28;20977;-79
2021/06/04 11:56:57;;;;;;;5.17;4.60;;;32.60;98.60;;;;;;5049599;28;20243;-80
2021/06/04 11:59:58;;;;;;;4.90;4.20;;;31.90;99.90;;;;;;5068705;28;20238;-80
2021/06/04 12:02:42;;;;;;;4.90;4.50;;;31.60;99.90;;;;;;5033726;28;20313;-80
2021/06/04 12:05:35;;;;;;;5.50;4.73;;;31.60;99.90;;;;;;5068642;28;20317;-79
2021/06/04 12:08:13;;;;;;;5.63;4.03;;;31.70;99.90;;;;;;5057436;28;20622;-79
2021/06/04 12:11:24;;;;;;;5.23;4.73;;;31.60;99.90;;;;;;5043631;28;20332;-81
2021/06/04 12:14:15;;;;;;;4.30;4.00;;;31.30;99.90;;;;;;5060640;28;20873;-83
2021/06/04 12:17:06;;;;;;;6.20;5.60;;;31.20;99.90;;;;;;5046819;28;20359;-82
2021/06/04 12:19:37;;;;;;;7.03;6.43;;;31.20;99.90;;;;;;5040245;28;20587;-84
2021/06/04 12:22:33;;;;;;;5.10;4.60;;;30.90;99.90;;;;;;5049396;28;20634;-84
2021/06/04 12:25:06;;;;;;;4.93;4.50;;;30.70;99.90;;;;;;5065020;28;20238;-84
2021/06/04 12:28:00;;;;;;;5.43;4.83;;;31.00;99.90;;;;;;5049347;28;20258;-83
2021/06/04 12:31:07;;;;;;;4.00;3.70;;;31.30;99.90;;;;;;5064425;28;20602;-83
2021/06/04 12:33:41;;;;;;;7.00;4.57;;;31.30;99.90;;;;;;5048978;28;20243;-84
2021/06/04 12:36:46;;;;;;;4.60;4.13;;;31.20;99.90;;;;;;5049691;28;20242;-84
2021/06/04 12:39:36;;;;;;;4.87;4.30;;;31.30;99.90;;;;;;5046743;28;20238;-84
2021/06/04 12:42:12;;;;;;;4.87;4.40;;;31.20;99.90;;;;;;5050618;28;20246;-82
2021/06/04 12:44:52;;;;;;;4.53;4.13;;;31.20;99.90;;;;;;5050740;28;20249;-83
2021/06/04 12:47:29;;;;;;;4.70;4.30;;;31.10;99.90;;;;;;5047991;28;20242;-83
2021/06/04 12:50:18;;;;;;;5.07;4.23;;;31.20;99.90;;;;;;5048766;28;20252;-83
2021/06/04 12:52:49;;;;;;;4.50;4.10;;;30.90;99.90;;;;;;5052430;28;20350;-83
2021/06/04 12:55:27;;;;;;;4.97;4.23;;;30.80;99.90;;;;;;5067705;28;20237;-84
2021/06/04 12:58:13;;;;;;;5.20;4.50;;;30.50;99.90;;;;;;5047042;28;20249;-84
2021/06/04 13:00:41;;;;;;;4.83;4.43;;;30.90;99.90;;;;;;5048472;28;20267;-84
2021/06/04 13:03:15;;;;;;;5.10;4.60;;;30.70;99.90;;;;;;5064865;28;20239;-83
2021/06/04 13:05:48;;;;;;;4.70;4.30;;;31.00;99.90;;;;;;5045553;28;20246;-83
2021/06/04 13:08:17;;;;;;;4.93;4.50;;;31.40;99.90;;;;;;5061252;28;20277;-83
2021/06/04 13:10:54;;;;;;;4.20;3.90;;;31.20;99.90;;;;;;5065679;28;20340;-84
2021/06/04 13:13:51;;;;;;;5.40;4.90;;;31.20;99.90;;;;;;5055670;28;20285;-84